createdAt,value
2022-10-19T00:00:45.493Z,24.22
2022-10-19T00:01:45.529Z,24.12
2022-10-19T00:02:45.468Z,24.22
2022-10-19T00:03:45.519Z,24.06
2022-10-19T00:04:45.435Z,24.01
2022-10-19T00:05:45.432Z,24.22
2022-10-19T00:06:45.409Z,24.12
2022-10-19T00:07:45.400Z,24.01
2022-10-19T00:08:45.385Z,24.12
2022-10-19T00:09:45.370Z,24.38
2022-10-19T00:10:45.348Z,23.85
2022-10-19T00:11:45.341Z,24.17
2022-10-19T00:12:45.367Z,24.33
2022-10-19T00:13:45.314Z,24.12
2022-10-19T00:14:45.322Z,24.06
2022-10-19T00:15:45.289Z,24.17
2022-10-19T00:16:45.276Z,24.06
2022-10-19T00:17:45.263Z,24.12
2022-10-19T00:18:45.245Z,24.28
2022-10-19T00:19:45.232Z,24.06
2022-10-19T00:20:45.217Z,24.06
2022-10-19T00:21:45.220Z,24.17
2022-10-19T00:22:45.190Z,24.06
2022-10-19T00:23:45.177Z,24.12
2022-10-19T00:24:45.159Z,23.85
2022-10-19T00:25:45.149Z,24.06
2022-10-19T00:26:45.136Z,24.06
2022-10-19T00:27:45.122Z,24.17
2022-10-19T00:28:45.172Z,24.12
2022-10-19T00:29:45.095Z,24.06
2022-10-19T00:30:45.153Z,24.12
2022-10-19T00:31:45.120Z,24.06
2022-10-19T00:32:45.057Z,24.12
2022-10-19T00:33:45.043Z,24.12
2022-10-19T00:34:45.018Z,24.12
2022-10-19T00:35:45.013Z,24.12
2022-10-19T00:36:44.991Z,24.22
2022-10-19T00:37:44.982Z,24.17
2022-10-19T00:38:44.961Z,24.17
2022-10-19T00:39:45.009Z,24.01
2022-10-19T00:40:44.934Z,24.06
2022-10-19T00:41:44.920Z,24.12
2022-10-19T00:42:44.914Z,24.06
2022-10-19T00:43:44.902Z,24.12
2022-10-19T00:44:44.890Z,24.06
2022-10-19T00:45:44.880Z,23.74
2022-10-19T00:46:44.908Z,24.12
2022-10-19T00:47:44.850Z,23.79
2022-10-19T00:48:44.874Z,24.12
2022-10-19T00:49:44.816Z,24.28
2022-10-19T00:50:44.796Z,24.17
2022-10-19T00:51:44.787Z,24.12
2022-10-19T00:52:44.770Z,24.12
2022-10-19T00:53:44.760Z,24.17
2022-10-19T00:54:44.744Z,24.06
2022-10-19T00:55:44.734Z,24.12
2022-10-19T00:56:44.715Z,23.85
2022-10-19T00:57:44.739Z,24.12
2022-10-19T00:58:44.696Z,24.12
2022-10-19T00:59:44.680Z,24.12
2022-10-19T01:00:44.703Z,24.12
2022-10-19T01:01:44.656Z,24.06
2022-10-19T01:02:44.655Z,24.12
2022-10-19T01:03:44.625Z,24.12
2022-10-19T01:04:44.609Z,24.06
2022-10-19T01:05:44.597Z,24.22
2022-10-19T01:06:44.648Z,24.12
2022-10-19T01:07:44.573Z,24.06
2022-10-19T01:08:44.559Z,23.74
2022-10-19T01:09:44.548Z,24.12
2022-10-19T01:10:44.532Z,24.12
2022-10-19T01:11:44.521Z,24.33
2022-10-19T01:12:44.509Z,24.12
2022-10-19T01:13:44.496Z,24.12
2022-10-19T01:14:44.476Z,24.17
2022-10-19T01:15:44.517Z,24.01
2022-10-19T01:16:44.497Z,24.06
2022-10-19T01:17:44.436Z,24.06
2022-10-19T01:18:44.452Z,24.06
2022-10-19T01:19:44.422Z,23.74
2022-10-19T01:20:44.396Z,24.01
2022-10-19T01:21:44.395Z,24.12
2022-10-19T01:22:44.369Z,24.12
2022-10-19T01:23:44.365Z,24.12
2022-10-19T01:24:44.397Z,24.06
2022-10-19T01:25:44.330Z,24.12
2022-10-19T01:26:44.324Z,24.12
2022-10-19T01:27:44.311Z,24.12
2022-10-19T01:28:44.379Z,24.22
2022-10-19T01:29:44.287Z,24.01
2022-10-19T01:30:44.261Z,24.12
2022-10-19T01:31:44.256Z,24.12
2022-10-19T01:32:44.235Z,24.06
2022-10-19T01:33:44.304Z,24.12
2022-10-19T01:34:44.242Z,24.28
2022-10-19T01:35:44.200Z,24.17
2022-10-19T01:36:44.190Z,24.06
2022-10-19T01:37:44.176Z,24.17
2022-10-19T01:38:44.156Z,23.79
2022-10-19T01:39:46.385Z,24.06
2022-10-19T01:40:44.132Z,24.33
2022-10-19T01:41:44.115Z,24.06
2022-10-19T01:42:44.144Z,23.85
2022-10-19T01:43:44.095Z,24.06
2022-10-19T01:44:44.080Z,24.06
2022-10-19T01:45:44.065Z,24.12
2022-10-19T01:46:44.048Z,24.12
2022-10-19T01:47:44.037Z,24.28
2022-10-19T01:48:44.021Z,24.33
2022-10-19T01:49:44.210Z,24.06
2022-10-19T01:50:44.017Z,24.71
2022-10-19T01:51:43.989Z,24.06
2022-10-19T01:52:43.967Z,24.06
2022-10-19T01:53:43.958Z,24.06
2022-10-19T01:54:43.946Z,24.12
2022-10-19T01:55:43.938Z,24.17
2022-10-19T01:56:43.919Z,24.17
2022-10-19T01:57:43.911Z,24.01
2022-10-19T01:58:43.900Z,24.55
2022-10-19T01:59:43.879Z,24.12
2022-10-19T02:00:43.948Z,24.12
2022-10-19T02:01:43.853Z,24.06
2022-10-19T02:02:43.833Z,24.17
2022-10-19T02:03:43.826Z,24.12
2022-10-19T02:04:43.807Z,24.28
2022-10-19T02:05:43.800Z,24.06
2022-10-19T02:06:43.801Z,24.71
2022-10-19T02:07:43.771Z,24.06
2022-10-19T02:08:43.755Z,24.12
2022-10-19T02:09:43.740Z,24.17
2022-10-19T02:10:43.734Z,24.17
2022-10-19T02:11:46.409Z,24.06
2022-10-19T02:12:43.703Z,24.06
2022-10-19T02:13:43.692Z,24.06
2022-10-19T02:14:43.676Z,24.06
2022-10-19T02:15:43.671Z,24.06
2022-10-19T02:16:43.650Z,24.12
2022-10-19T02:17:43.646Z,24.06
2022-10-19T02:18:43.617Z,24.06
2022-10-19T02:19:43.608Z,24.49
2022-10-19T02:20:43.589Z,24.12
2022-10-19T02:21:43.585Z,24.12
2022-10-19T02:22:43.588Z,24.06
2022-10-19T02:23:43.553Z,23.96
2022-10-19T02:24:43.537Z,24.17
2022-10-19T02:25:43.531Z,24.12
2022-10-19T02:26:43.516Z,24.12
2022-10-19T02:27:43.506Z,24.06
2022-10-19T02:28:43.491Z,24.12
2022-10-19T02:29:43.482Z,24.12
2022-10-19T02:30:43.458Z,24.06
2022-10-19T02:31:43.447Z,24.12
2022-10-19T02:32:43.440Z,24.33
2022-10-19T02:33:43.582Z,24.12
2022-10-19T02:34:43.406Z,24.01
2022-10-19T02:35:43.402Z,24.12
2022-10-19T02:36:43.380Z,24.12
2022-10-19T02:37:43.375Z,24.12
2022-10-19T02:38:43.409Z,24.01
2022-10-19T02:39:43.347Z,24.28
2022-10-19T02:40:43.327Z,24.12
2022-10-19T02:41:43.316Z,24.12
2022-10-19T02:42:43.295Z,24.12
2022-10-19T02:43:43.290Z,24.12
2022-10-19T02:44:43.276Z,24.06
2022-10-19T02:45:43.262Z,23.79
2022-10-19T02:46:43.249Z,24.06
2022-10-19T02:47:43.235Z,24.17
2022-10-19T02:48:43.214Z,24.28
2022-10-19T02:49:43.207Z,24.06
2022-10-19T02:50:43.193Z,24.12
2022-10-19T02:51:43.181Z,24.12
2022-10-19T02:52:43.168Z,24.06
2022-10-19T02:53:43.153Z,24.17
2022-10-19T02:54:43.162Z,24.17
2022-10-19T02:55:43.129Z,24.22
2022-10-19T02:56:43.123Z,24.06
2022-10-19T02:57:43.100Z,24.12
2022-10-19T02:58:43.084Z,24.17
2022-10-19T02:59:43.067Z,24.06
2022-10-19T03:00:43.112Z,24.06
2022-10-19T03:01:43.048Z,24.01
2022-10-19T03:02:43.039Z,24.06
2022-10-19T03:03:43.020Z,24.22
2022-10-19T03:04:43.053Z,24.06
2022-10-19T03:05:42.993Z,24.12
2022-10-19T03:06:42.979Z,24.28
2022-10-19T03:07:42.961Z,24.12
2022-10-19T03:08:42.953Z,24.12
2022-10-19T03:09:42.938Z,24.06
2022-10-19T03:10:42.946Z,24.12
2022-10-19T03:11:42.911Z,24.12
2022-10-19T03:12:42.900Z,24.06
2022-10-19T03:13:42.925Z,24.12
2022-10-19T03:14:42.883Z,24.12
2022-10-19T03:15:42.857Z,24.12
2022-10-19T03:16:42.846Z,23.74
2022-10-19T03:17:42.827Z,24.06
2022-10-19T03:18:42.821Z,24.06
2022-10-19T03:19:42.807Z,24.12
2022-10-19T03:20:42.792Z,24.17
2022-10-19T03:21:42.776Z,23.96
2022-10-19T03:22:42.836Z,24.12
2022-10-19T03:23:42.743Z,24.12
2022-10-19T03:24:42.734Z,24.12
2022-10-19T03:25:42.717Z,24.28
2022-10-19T03:26:42.727Z,23.96
2022-10-19T03:27:42.691Z,24.22
2022-10-19T03:28:42.733Z,24.01
2022-10-19T03:29:42.667Z,24.06
2022-10-19T03:30:42.654Z,24.06
2022-10-19T03:31:42.646Z,24.01
2022-10-19T03:32:42.628Z,24.12
2022-10-19T03:33:42.614Z,24.12
2022-10-19T03:34:42.597Z,23.96
2022-10-19T03:35:42.579Z,24.12
2022-10-19T03:36:42.571Z,24.12
2022-10-19T03:37:42.555Z,24.12
2022-10-19T03:38:42.552Z,24.06
2022-10-19T03:39:42.528Z,24.12
2022-10-19T03:40:42.522Z,24.12
2022-10-19T03:41:42.504Z,24.12
2022-10-19T03:42:42.515Z,24.06
2022-10-19T03:43:42.480Z,23.96
2022-10-19T03:44:42.466Z,24.17
2022-10-19T03:45:42.451Z,24.12
2022-10-19T03:46:42.436Z,24.06
2022-10-19T03:47:42.419Z,24.12
2022-10-19T03:48:42.407Z,24.12
2022-10-19T03:49:42.397Z,24.12
2022-10-19T03:50:42.382Z,24.12
2022-10-19T03:51:42.614Z,24.12
2022-10-19T03:52:42.357Z,24.06
2022-10-19T03:53:42.339Z,24.12
2022-10-19T03:54:42.333Z,24.06
2022-10-19T03:55:42.315Z,23.96
2022-10-19T03:56:42.306Z,24.06
2022-10-19T03:57:42.291Z,24.17
2022-10-19T03:58:42.302Z,24.12
2022-10-19T03:59:42.264Z,24.06
2022-10-19T04:00:42.301Z,24.12
2022-10-19T04:01:42.235Z,24.06
2022-10-19T04:02:42.220Z,24.06
2022-10-19T04:03:42.201Z,24.22
2022-10-19T04:04:42.199Z,24.44
2022-10-19T04:05:42.177Z,24.12
2022-10-19T04:06:42.166Z,24.06
2022-10-19T04:07:42.151Z,24.17
2022-10-19T04:08:42.136Z,24.12
2022-10-19T04:09:42.131Z,24.12
2022-10-19T04:10:42.112Z,24.28
2022-10-19T04:11:42.108Z,24.12
2022-10-19T04:12:42.089Z,24.22
2022-10-19T04:13:42.079Z,24.44
2022-10-19T04:14:56.422Z,24.06
2022-10-19T04:15:43.071Z,24.12
2022-10-19T04:16:42.031Z,24.22
2022-10-19T04:17:43.808Z,24.06
2022-10-19T04:18:42.001Z,23.69
2022-10-19T04:19:41.988Z,24.06
2022-10-19T04:20:41.971Z,24.22
2022-10-19T04:21:42.071Z,24.28
2022-10-19T04:22:41.947Z,24.06
2022-10-19T04:23:41.945Z,24.17
2022-10-19T04:24:41.920Z,24.06
2022-10-19T04:25:41.911Z,24.12
2022-10-19T04:26:41.901Z,24.06
2022-10-19T04:27:41.887Z,24.01
2022-10-19T04:28:41.955Z,24.12
2022-10-19T04:29:41.862Z,24.12
2022-10-19T04:30:41.867Z,24.12
2022-10-19T04:31:41.857Z,24.12
2022-10-19T04:32:41.822Z,24.06
2022-10-19T04:33:41.850Z,24.06
2022-10-19T04:34:41.790Z,23.79
2022-10-19T04:35:41.779Z,24.12
2022-10-19T04:36:41.765Z,24.06
2022-10-19T04:37:41.750Z,24.06
2022-10-19T04:38:41.735Z,24.12
2022-10-19T04:39:41.727Z,24.12
2022-10-19T04:40:41.758Z,24.17
2022-10-19T04:41:41.700Z,24.06
2022-10-19T04:42:41.678Z,24.28
2022-10-19T04:43:41.666Z,24.06
2022-10-19T04:44:41.649Z,24.12
2022-10-19T04:45:41.643Z,24.12
2022-10-19T04:46:41.645Z,23.85
2022-10-19T04:47:41.613Z,24.01
2022-10-19T04:48:41.599Z,24.17
2022-10-19T04:49:41.591Z,24.06
2022-10-19T04:50:41.572Z,23.85
2022-10-19T04:51:41.565Z,23.63
2022-10-19T04:52:41.546Z,24.12
2022-10-19T04:53:41.534Z,24.06
2022-10-19T04:54:41.520Z,24.33
2022-10-19T04:55:41.509Z,23.96
2022-10-19T04:56:41.493Z,24.12
2022-10-19T04:57:41.482Z,24.12
2022-10-19T04:58:41.459Z,24.12
2022-10-19T04:59:41.451Z,24.06
2022-10-19T05:00:41.475Z,24.06
2022-10-19T05:01:46.536Z,24.22
2022-10-19T05:02:42.452Z,24.12
2022-10-19T05:03:41.394Z,24.06
2022-10-19T05:04:44.414Z,24.06
2022-10-19T05:05:41.372Z,24.17
2022-10-19T05:06:41.354Z,24.06
2022-10-19T05:07:41.343Z,24.17
2022-10-19T05:08:41.331Z,24.12
2022-10-19T05:09:41.322Z,24.28
2022-10-19T05:10:44.243Z,24.06
2022-10-19T05:11:41.291Z,24.12
2022-10-19T05:12:41.274Z,24.12
2022-10-19T05:13:41.264Z,24.06
2022-10-19T05:14:42.899Z,24.60
2022-10-19T05:15:41.244Z,24.06
2022-10-19T05:16:41.221Z,24.06
2022-10-19T05:17:41.214Z,24.01
2022-10-19T05:18:41.216Z,24.33
2022-10-19T05:19:41.194Z,24.12
2022-10-19T05:20:41.174Z,24.12
2022-10-19T05:21:41.159Z,23.74
2022-10-19T05:22:41.135Z,24.06
2022-10-19T05:23:41.129Z,24.17
2022-10-19T05:24:41.111Z,24.17
2022-10-19T05:25:41.104Z,24.17
2022-10-19T05:26:41.082Z,24.12
2022-10-19T05:27:41.075Z,24.17
2022-10-19T05:28:41.143Z,24.17
2022-10-19T05:29:41.050Z,24.12
2022-10-19T05:30:43.347Z,24.12
2022-10-19T05:31:41.026Z,24.17
2022-10-19T05:32:41.007Z,24.06
2022-10-19T05:33:40.998Z,24.22
2022-10-19T05:34:41.002Z,24.12
2022-10-19T05:35:40.973Z,24.06
2022-10-19T05:36:40.959Z,24.12
2022-10-19T05:37:40.946Z,24.12
2022-10-19T05:38:40.925Z,24.17
2022-10-19T05:39:40.910Z,23.96
2022-10-19T05:40:40.895Z,24.06
2022-10-19T05:41:40.883Z,23.96
2022-10-19T05:42:40.872Z,24.12
2022-10-19T05:43:40.860Z,24.06
2022-10-19T05:44:40.994Z,24.06
2022-10-19T05:45:40.839Z,24.28
2022-10-19T05:46:40.818Z,24.17
2022-10-19T05:47:40.808Z,24.01
2022-10-19T05:48:40.789Z,24.01
2022-10-19T05:49:40.780Z,24.12
2022-10-19T05:50:40.780Z,24.17
2022-10-19T05:51:40.748Z,24.06
2022-10-19T05:52:40.784Z,23.90
2022-10-19T05:53:40.873Z,24.17
2022-10-19T05:54:40.709Z,24.06
2022-10-19T05:55:40.700Z,24.17
2022-10-19T05:56:40.686Z,24.22
2022-10-19T05:57:40.669Z,24.06
2022-10-19T05:58:40.661Z,24.12
2022-10-19T05:59:40.644Z,24.22
2022-10-19T06:00:40.636Z,24.01
2022-10-19T06:01:40.701Z,24.06
2022-10-19T06:02:40.596Z,24.06
2022-10-19T06:03:40.583Z,24.12
2022-10-19T06:04:40.580Z,24.17
2022-10-19T06:05:40.555Z,24.28
2022-10-19T06:06:40.560Z,24.12
2022-10-19T06:07:40.534Z,24.06
2022-10-19T06:08:40.551Z,24.28
2022-10-19T06:09:40.506Z,24.12
2022-10-19T06:10:40.491Z,24.22
2022-10-19T06:11:40.480Z,24.12
2022-10-19T06:12:40.470Z,24.12
2022-10-19T06:13:40.456Z,24.06
2022-10-19T06:14:40.466Z,24.06
2022-10-19T06:15:40.418Z,24.12
2022-10-19T06:16:40.406Z,24.06
2022-10-19T06:17:40.392Z,24.17
2022-10-19T06:18:40.383Z,24.22
2022-10-19T06:19:40.367Z,24.12
2022-10-19T06:20:40.347Z,24.06
2022-10-19T06:21:43.265Z,24.17
2022-10-19T06:22:40.346Z,24.12
2022-10-19T06:24:40.300Z,24.33
2022-10-19T06:25:40.296Z,24.12
2022-10-19T06:26:40.270Z,24.12
2022-10-19T06:27:40.362Z,24.06
2022-10-19T06:28:40.243Z,24.22
2022-10-19T06:29:40.238Z,24.33
2022-10-19T06:30:40.271Z,24.12
2022-10-19T06:31:40.200Z,24.12
2022-10-19T06:32:40.184Z,24.17
2022-10-19T06:33:40.196Z,24.12
2022-10-19T06:34:40.158Z,24.12
2022-10-19T06:35:40.149Z,24.22
2022-10-19T06:36:40.135Z,24.12
2022-10-19T06:37:40.140Z,24.12
2022-10-19T06:38:40.124Z,24.28
2022-10-19T06:39:40.166Z,24.17
2022-10-19T06:40:40.072Z,24.12
2022-10-19T06:41:40.065Z,24.12
2022-10-19T06:42:40.046Z,24.12
2022-10-19T06:43:40.035Z,24.01
2022-10-19T06:44:40.017Z,24.17
2022-10-19T06:45:40.008Z,24.33
2022-10-19T06:46:39.987Z,24.12
2022-10-19T06:47:40.032Z,24.22
2022-10-19T06:48:39.962Z,24.06
2022-10-19T06:49:39.948Z,24.01
2022-10-19T06:50:39.938Z,24.06
2022-10-19T06:51:39.927Z,24.12
2022-10-19T06:52:39.913Z,24.22
2022-10-19T06:53:39.898Z,24.22
2022-10-19T06:54:39.906Z,24.17
2022-10-19T06:55:39.870Z,24.06
2022-10-19T06:56:39.974Z,24.12
2022-10-19T06:57:39.842Z,24.22
2022-10-19T06:58:39.830Z,23.90
2022-10-19T06:59:39.814Z,24.12
2022-10-19T07:00:39.843Z,24.12
2022-10-19T07:01:39.781Z,24.12
2022-10-19T07:02:39.771Z,24.12
2022-10-19T07:03:39.760Z,24.17
2022-10-19T07:04:39.746Z,24.06
2022-10-19T07:05:39.725Z,24.12
2022-10-19T07:06:39.716Z,24.06
2022-10-19T07:07:39.724Z,24.06
2022-10-19T07:08:39.697Z,24.17
2022-10-19T07:09:39.677Z,24.06
2022-10-19T07:10:39.681Z,24.12
2022-10-19T07:11:45.547Z,24.06
2022-10-19T07:12:40.656Z,24.12
2022-10-19T07:13:39.621Z,24.12
2022-10-19T07:14:39.699Z,24.12
2022-10-19T07:15:39.598Z,24.28
2022-10-19T07:16:39.576Z,24.12
2022-10-19T07:17:39.573Z,24.17
2022-10-19T07:18:39.556Z,24.12
2022-10-19T07:19:39.541Z,24.17
2022-10-19T07:20:39.520Z,24.22
2022-10-19T07:21:39.509Z,24.17
2022-10-19T07:22:39.494Z,24.22
2022-10-19T07:23:39.484Z,24.22
2022-10-19T07:24:39.465Z,24.06
2022-10-19T07:25:39.454Z,23.96
2022-10-19T07:26:39.455Z,24.06
2022-10-19T07:27:39.967Z,24.06
2022-10-19T07:28:39.410Z,24.33
2022-10-19T07:29:39.396Z,24.12
2022-10-19T07:30:39.379Z,24.12
2022-10-19T07:31:39.370Z,24.12
2022-10-19T07:32:42.028Z,24.06
2022-10-19T07:33:40.366Z,24.01
2022-10-19T07:34:39.334Z,24.06
2022-10-19T07:35:39.314Z,24.22
2022-10-19T07:36:39.294Z,24.12
2022-10-19T07:37:39.288Z,24.12
2022-10-19T07:38:39.276Z,24.17
2022-10-19T07:39:39.261Z,24.06
2022-10-19T07:40:42.393Z,23.96
2022-10-19T07:41:39.236Z,24.12
2022-10-19T07:42:39.241Z,24.22
2022-10-19T07:43:39.210Z,24.22
2022-10-19T07:44:39.190Z,23.90
2022-10-19T07:45:39.183Z,24.06
2022-10-19T07:46:39.167Z,24.12
2022-10-19T07:47:39.151Z,24.22
2022-10-19T07:48:39.135Z,24.22
2022-10-19T07:49:39.124Z,24.22
2022-10-19T07:50:39.106Z,24.17
2022-10-19T07:51:39.101Z,24.12
2022-10-19T07:52:39.602Z,24.49
2022-10-19T07:53:39.077Z,24.12
2022-10-19T07:54:39.051Z,24.01
2022-10-19T07:55:39.050Z,24.22
2022-10-19T07:56:39.023Z,24.12
2022-10-19T07:57:40.705Z,24.12
2022-10-19T07:58:39.027Z,24.12
2022-10-19T07:59:38.986Z,24.12
2022-10-19T08:01:39.235Z,24.06
2022-10-19T08:02:54.774Z,24.06
2022-10-19T08:05:38.916Z,24.06
2022-10-19T08:06:38.894Z,24.12
2022-10-19T08:07:38.880Z,23.79
2022-10-19T08:08:38.920Z,24.06
2022-10-19T08:09:54.561Z,24.01
2022-10-19T08:10:39.858Z,24.12
2022-10-19T08:11:38.825Z,24.12
2022-10-19T08:12:38.809Z,24.06
2022-10-19T08:13:38.797Z,24.12
2022-10-19T08:14:38.804Z,24.17
2022-10-19T08:15:38.769Z,24.12
2022-10-19T08:16:38.759Z,24.06
2022-10-19T08:17:38.748Z,23.85
2022-10-19T08:18:38.733Z,24.12
2022-10-19T08:19:38.722Z,24.12
2022-10-19T08:20:38.702Z,24.12
2022-10-19T08:21:38.693Z,24.12
2022-10-19T08:22:38.685Z,24.12
2022-10-19T08:23:38.812Z,24.06
2022-10-19T08:24:38.654Z,24.12
2022-10-19T08:25:38.642Z,24.22
2022-10-19T08:26:38.619Z,24.12
2022-10-19T08:27:38.605Z,23.74
2022-10-19T08:28:38.592Z,24.17
2022-10-19T08:29:38.577Z,24.12
2022-10-19T08:30:38.587Z,24.01
2022-10-19T08:31:38.546Z,24.01
2022-10-19T08:32:38.537Z,24.12
2022-10-19T08:33:38.520Z,24.38
2022-10-19T08:34:38.515Z,24.22
2022-10-19T08:35:38.498Z,24.12
2022-10-19T08:36:38.540Z,24.12
2022-10-19T08:37:45.175Z,24.12
2022-10-19T08:38:39.483Z,24.12
2022-10-19T08:39:38.448Z,23.63
2022-10-19T08:40:38.436Z,23.90
2022-10-19T08:41:38.479Z,24.01
2022-10-19T08:42:38.402Z,24.49
2022-10-19T08:43:38.388Z,24.12
2022-10-19T08:44:38.381Z,23.69
2022-10-19T08:45:38.425Z,24.22
2022-10-19T08:46:38.388Z,24.06
2022-10-19T08:47:38.573Z,23.79
2022-10-19T08:48:38.326Z,24.17
2022-10-19T08:49:38.302Z,24.12
2022-10-19T08:50:38.296Z,24.12
2022-10-19T08:51:38.284Z,23.63
2022-10-19T08:52:38.275Z,24.33
2022-10-19T08:53:38.255Z,24.06
2022-10-19T08:54:38.275Z,24.12
2022-10-19T08:55:38.226Z,23.63
2022-10-19T08:56:50.420Z,24.22
2022-10-19T08:57:39.226Z,24.12
2022-10-19T08:58:38.196Z,24.12
2022-10-19T08:59:38.175Z,24.22
2022-10-19T09:01:38.148Z,23.63
2022-10-19T09:02:38.171Z,23.74
2022-10-19T09:04:03.251Z,23.79
2022-10-19T09:04:39.130Z,24.22
2022-10-19T09:05:38.091Z,23.69
2022-10-19T09:06:38.078Z,24.12
2022-10-19T09:07:38.066Z,24.06
2022-10-19T09:08:38.092Z,23.74
2022-10-19T09:09:38.141Z,23.74
2022-10-19T09:10:38.021Z,23.58
2022-10-19T09:11:38.006Z,23.63
2022-10-19T09:12:38.000Z,23.74
2022-10-19T09:13:41.723Z,23.96
2022-10-19T09:14:38.994Z,24.28
2022-10-19T09:15:37.958Z,23.69
2022-10-19T09:16:37.951Z,23.74
2022-10-19T09:17:37.934Z,24.33
2022-10-19T09:18:37.944Z,23.79
2022-10-19T09:19:37.903Z,23.69
2022-10-19T09:20:37.905Z,23.47
2022-10-19T09:21:43.262Z,24.06
2022-10-19T09:22:38.884Z,23.63
2022-10-19T09:23:37.847Z,24.17
2022-10-19T09:24:37.836Z,23.63
2022-10-19T09:25:37.842Z,23.63
2022-10-19T09:26:37.811Z,23.74
2022-10-19T09:27:37.797Z,24.06
2022-10-19T09:28:39.953Z,23.74
2022-10-19T09:29:37.772Z,23.69
2022-10-19T09:30:37.755Z,23.69
2022-10-19T09:31:40.530Z,24.28
2022-10-19T09:32:38.192Z,23.69
2022-10-19T09:33:37.713Z,23.74
2022-10-19T09:34:37.727Z,23.74
2022-10-19T09:35:37.688Z,24.12
2022-10-19T09:36:50.083Z,23.69
2022-10-19T09:37:38.678Z,23.63
2022-10-19T09:38:37.652Z,23.63
2022-10-19T09:39:37.640Z,24.28
2022-10-19T09:40:37.621Z,23.74
2022-10-19T09:41:37.608Z,24.01
2022-10-19T09:42:38.041Z,23.74
2022-10-19T09:43:37.580Z,23.74
2022-10-19T09:44:37.569Z,23.69
2022-10-19T09:45:37.557Z,24.12
2022-10-19T09:46:38.874Z,23.74
2022-10-19T09:47:37.893Z,23.58
2022-10-19T09:48:37.512Z,23.85
2022-10-19T09:49:37.497Z,23.69
2022-10-19T09:50:37.503Z,23.96
2022-10-19T09:51:37.466Z,23.63
2022-10-19T09:52:37.453Z,23.74
2022-10-19T09:53:37.435Z,23.90
2022-10-19T09:54:37.433Z,23.69
2022-10-19T09:55:37.432Z,23.74
2022-10-19T09:56:37.400Z,23.74
2022-10-19T09:57:37.484Z,23.69
2022-10-19T09:58:37.379Z,23.69
2022-10-19T09:59:37.352Z,23.69
2022-10-19T10:00:37.351Z,23.58
2022-10-19T10:01:41.613Z,29.59
2022-10-19T10:02:37.841Z,50.22
2022-10-19T10:03:37.306Z,39.16
2022-10-19T10:04:37.297Z,32.44
2022-10-19T10:05:37.278Z,32.23
2022-10-19T10:06:37.292Z,30.24
2022-10-19T10:07:37.416Z,29.54
2022-10-19T10:08:37.263Z,29.54
2022-10-19T10:09:37.221Z,29.65
2022-10-19T10:10:37.207Z,29.11
2022-10-19T10:11:37.195Z,28.79
2022-10-19T10:12:37.197Z,28.20
2022-10-19T10:13:37.165Z,28.74
2022-10-19T10:14:37.152Z,28.57
2022-10-19T10:15:37.138Z,28.31
2022-10-19T10:16:37.127Z,28.25
2022-10-19T10:17:37.112Z,28.25
2022-10-19T10:18:37.101Z,28.25
2022-10-19T10:19:37.087Z,28.36
2022-10-19T10:20:37.075Z,28.20
2022-10-19T10:21:37.060Z,28.31
2022-10-19T10:22:37.279Z,27.82
2022-10-19T10:23:37.040Z,27.82
2022-10-19T10:24:37.021Z,27.88
2022-10-19T10:25:37.005Z,27.98
2022-10-19T10:26:36.994Z,27.61
2022-10-19T10:27:37.296Z,27.77
2022-10-19T10:28:36.966Z,27.82
2022-10-19T10:29:36.950Z,28.04
2022-10-19T10:30:36.938Z,27.71
2022-10-19T10:31:36.919Z,27.77
2022-10-19T10:32:37.147Z,27.71
2022-10-19T10:33:45.344Z,27.66
2022-10-19T10:34:49.516Z,27.88
2022-10-19T10:35:37.892Z,27.93
2022-10-19T10:36:36.858Z,27.45
2022-10-19T10:37:37.226Z,27.45
2022-10-19T10:38:36.856Z,27.39
2022-10-19T10:39:36.819Z,27.55
2022-10-19T10:40:36.806Z,27.45
2022-10-19T10:41:36.791Z,27.61
2022-10-19T10:42:37.170Z,27.50
2022-10-19T10:43:36.763Z,27.45
2022-10-19T10:44:36.753Z,27.45
2022-10-19T10:45:36.736Z,27.39
2022-10-19T10:46:36.724Z,27.45
2022-10-19T10:47:37.015Z,26.91
2022-10-19T10:48:36.698Z,27.66
2022-10-19T10:49:36.685Z,27.50
2022-10-19T10:50:36.669Z,26.86
2022-10-19T10:51:36.658Z,26.86
2022-10-19T10:52:37.172Z,27.61
2022-10-19T10:53:36.628Z,27.02
2022-10-19T10:54:36.637Z,27.50
2022-10-19T10:55:36.600Z,26.86
2022-10-19T10:56:36.586Z,26.86
2022-10-19T10:57:36.571Z,26.86
2022-10-19T10:58:36.559Z,27.39
2022-10-19T10:59:37.275Z,26.86
2022-10-19T11:00:36.531Z,26.80
2022-10-19T11:01:36.573Z,26.91
2022-10-19T11:02:36.511Z,26.75
2022-10-19T11:03:36.493Z,26.86
2022-10-19T11:04:36.484Z,26.53
2022-10-19T11:05:36.461Z,26.75
2022-10-19T11:06:37.669Z,26.86
2022-10-19T11:07:36.854Z,26.91
2022-10-19T11:08:36.511Z,27.29
2022-10-19T11:09:36.415Z,26.80
2022-10-19T11:10:36.424Z,26.86
2022-10-19T11:11:36.381Z,26.86
2022-10-19T11:12:36.373Z,26.80
2022-10-19T11:13:36.497Z,26.75
2022-10-19T11:14:36.526Z,26.43
2022-10-19T11:15:36.348Z,26.48
2022-10-19T11:16:36.328Z,26.80
2022-10-19T11:17:36.716Z,26.43
2022-10-19T11:18:36.325Z,26.43
2022-10-19T11:19:36.282Z,26.32
2022-10-19T11:20:36.271Z,26.48
2022-10-19T11:21:36.252Z,26.43
2022-10-19T11:22:36.747Z,26.48
2022-10-19T11:23:36.368Z,26.86
2022-10-19T11:24:36.217Z,26.91
2022-10-19T11:25:36.197Z,26.48
2022-10-19T11:26:36.285Z,26.48
2022-10-19T11:27:36.641Z,26.48
2022-10-19T11:28:36.153Z,26.43
2022-10-19T11:29:36.140Z,26.59
2022-10-19T11:30:39.020Z,26.48
2022-10-19T11:31:37.229Z,26.43
2022-10-19T11:32:36.666Z,26.48
2022-10-19T11:33:36.196Z,26.43
2022-10-19T11:34:36.087Z,26.53
2022-10-19T11:35:36.065Z,26.59
2022-10-19T11:36:36.067Z,26.69
2022-10-19T11:37:37.524Z,26.48
2022-10-19T11:38:37.211Z,26.48
2022-10-19T11:39:36.007Z,26.43
2022-10-19T11:40:36.111Z,26.43
2022-10-19T11:41:36.028Z,26.43
2022-10-19T11:42:36.067Z,26.59
2022-10-19T11:43:35.961Z,26.43
2022-10-19T11:44:35.954Z,26.32
2022-10-19T11:45:35.922Z,26.37
2022-10-19T11:46:35.916Z,26.48
2022-10-19T11:47:36.248Z,26.53
2022-10-19T11:48:37.664Z,26.53
2022-10-19T11:49:35.874Z,26.32
2022-10-19T11:50:35.864Z,26.48
2022-10-19T11:51:35.853Z,26.43
2022-10-19T11:52:36.317Z,26.48
2022-10-19T11:53:35.818Z,26.43
2022-10-19T11:54:35.814Z,26.10
2022-10-19T11:55:35.794Z,26.43
2022-10-19T11:56:58.149Z,26.37
2022-10-19T11:57:37.121Z,26.48
2022-10-19T11:58:35.780Z,26.43
2022-10-19T11:59:35.746Z,26.10
2022-10-19T12:00:39.785Z,26.37
2022-10-19T12:01:35.758Z,26.37
2022-10-19T12:02:35.957Z,26.48
2022-10-19T12:03:35.686Z,26.48
2022-10-19T12:04:35.682Z,26.43
2022-10-19T12:05:35.662Z,26.43
2022-10-19T12:06:35.644Z,26.37
2022-10-19T12:07:35.627Z,26.43
2022-10-19T12:08:35.677Z,26.05
2022-10-19T12:09:35.600Z,26.05
2022-10-19T12:10:35.594Z,26.05
2022-10-19T12:11:35.581Z,26.37
2022-10-19T12:12:35.850Z,26.05
2022-10-19T12:13:35.551Z,26.48
2022-10-19T12:14:35.560Z,26.00
2022-10-19T12:15:35.525Z,26.21
2022-10-19T12:16:35.516Z,26.00
2022-10-19T12:17:35.625Z,26.32
2022-10-19T12:18:35.485Z,26.05
2022-10-19T12:19:35.462Z,26.26
2022-10-19T12:20:35.453Z,26.00
2022-10-19T12:21:35.435Z,26.05
2022-10-19T12:22:35.424Z,26.05
2022-10-19T12:23:35.408Z,26.05
2022-10-19T12:24:35.407Z,26.00
2022-10-19T12:25:35.383Z,26.00
2022-10-19T12:26:35.379Z,26.16
2022-10-19T12:27:35.682Z,26.05
2022-10-19T12:28:35.358Z,26.16
2022-10-19T12:29:35.336Z,26.05
2022-10-19T12:30:35.349Z,25.94
2022-10-19T12:31:35.308Z,26.05
2022-10-19T12:32:35.296Z,26.10
2022-10-19T12:33:35.281Z,26.05
2022-10-19T12:34:35.269Z,26.10
2022-10-19T12:35:35.253Z,26.05
2022-10-19T12:36:35.236Z,26.05
2022-10-19T12:37:35.558Z,26.05
2022-10-19T12:38:35.208Z,26.05
2022-10-19T12:39:35.201Z,26.05
2022-10-19T12:40:35.194Z,26.16
2022-10-19T12:41:35.170Z,26.10
2022-10-19T12:42:35.160Z,26.10
2022-10-19T12:43:35.157Z,26.05
2022-10-19T12:44:35.140Z,26.10
2022-10-19T12:45:35.126Z,26.16
2022-10-19T12:46:35.127Z,26.43
2022-10-19T12:47:35.428Z,26.10
2022-10-19T12:48:35.086Z,26.10
2022-10-19T12:49:35.072Z,26.00
2022-10-19T12:50:37.746Z,25.94
2022-10-19T12:51:35.037Z,26.26
2022-10-19T12:52:35.327Z,26.05
2022-10-19T12:53:35.014Z,26.05
2022-10-19T12:54:34.999Z,25.57
2022-10-19T12:55:35.010Z,26.10
2022-10-19T12:56:34.971Z,26.21
2022-10-19T12:57:35.430Z,26.10